createdAt,value
2017-08-31T00:03:19.248Z,39.4
2017-08-31T00:14:19.181Z,39
2017-08-31T00:25:19.602Z,39
2017-08-31T00:36:18.911Z,38.7
2017-08-31T00:47:19.142Z,38.8
2017-08-31T00:58:19.097Z,38
2017-08-31T01:09:19.527Z,37.9
2017-08-31T01:20:19.673Z,37.7
2017-08-31T01:31:18.723Z,37.5
2017-08-31T01:42:19.775Z,37.1
2017-08-31T01:53:18.745Z,36.8
2017-08-31T02:04:19.001Z,36
2017-08-31T02:15:19.084Z,35.8
2017-08-31T02:26:18.441Z,35.6
2017-08-31T02:37:19.099Z,35.2
2017-08-31T02:48:19.853Z,34.7
2017-08-31T02:59:18.707Z,34.5
2017-08-31T03:10:19.775Z,34.4
2017-08-31T03:21:19.413Z,33.9
2017-08-31T03:32:19.065Z,33.4
2017-08-31T03:43:18.711Z,36.3
2017-08-31T03:54:18.807Z,36.7
2017-08-31T04:05:19.028Z,37.3
2017-08-31T04:16:19.887Z,37.3
2017-08-31T04:27:19.131Z,37.9
2017-08-31T04:38:19.487Z,38.6
2017-08-31T04:49:19.157Z,38.7
2017-08-31T05:00:19.832Z,39.5
2017-08-31T05:11:18.829Z,38.9
2017-08-31T05:22:19.300Z,37.3
2017-08-31T05:33:19.161Z,37.9
2017-08-31T05:44:18.438Z,37.8
2017-08-31T05:55:19.082Z,37.5
2017-08-31T06:06:19.265Z,37
2017-08-31T06:17:18.838Z,35.9
2017-08-31T06:28:19.145Z,34.8
2017-08-31T06:39:19.337Z,35.5
2017-08-31T06:50:18.803Z,35.1
2017-08-31T07:01:18.888Z,34.4
2017-08-31T07:12:19.267Z,35
2017-08-31T07:23:19.182Z,34.7
2017-08-31T07:34:19.022Z,33.9
2017-08-31T07:45:19.043Z,33.9
2017-08-31T07:56:18.685Z,34.4
2017-08-31T08:07:18.805Z,34
2017-08-31T08:18:19.064Z,33.7
2017-08-31T08:29:19.468Z,33.8
2017-08-31T08:40:19.331Z,33.5
2017-08-31T08:51:19.708Z,33
2017-08-31T09:02:19.400Z,33.4
2017-08-31T09:13:19.560Z,32.9
2017-08-31T09:24:18.603Z,33.3
2017-08-31T09:35:19.214Z,33.3
2017-08-31T09:46:18.611Z,33.4
2017-08-31T09:57:18.604Z,32.9
2017-08-31T10:08:19.211Z,34.4
2017-08-31T10:19:18.977Z,35.1
2017-08-31T10:30:18.652Z,35.9
2017-08-31T10:41:18.962Z,36.5
2017-08-31T10:52:19.220Z,36.7
2017-08-31T11:03:20.592Z,37.6
2017-08-31T11:14:19.772Z,38.8
2017-08-31T11:25:19.442Z,38.6
2017-08-31T11:36:19.531Z,39.3
2017-08-31T11:47:19.087Z,39.2
2017-08-31T11:58:19.036Z,38
2017-08-31T12:09:19.174Z,37.7
2017-08-31T12:20:19.485Z,36.5
2017-08-31T12:31:19.029Z,36
2017-08-31T12:42:18.583Z,36.6
2017-08-31T12:53:18.663Z,36.7
2017-08-31T13:04:18.704Z,36.5
2017-08-31T13:15:18.454Z,37
2017-08-31T13:26:19.000Z,36.9
2017-08-31T13:37:18.700Z,36.2
2017-08-31T13:48:19.247Z,36.7
2017-08-31T13:59:18.520Z,36.1
2017-08-31T14:10:19.954Z,36
2017-08-31T14:21:18.906Z,36.2
2017-08-31T14:32:19.046Z,36
2017-08-31T14:43:19.175Z,36
2017-08-31T14:54:18.998Z,36.3
2017-08-31T15:05:19.005Z,36.7
2017-08-31T15:16:19.175Z,35.9
2017-08-31T15:27:19.113Z,35.8
2017-08-31T15:38:18.873Z,35.6
2017-08-31T15:49:19.404Z,35.9
2017-08-31T16:00:18.864Z,35.5
2017-08-31T16:11:19.572Z,36.3
2017-08-31T16:22:18.819Z,34.4
2017-08-31T16:33:19.431Z,34.9
2017-08-31T16:44:19.173Z,36.6
2017-08-31T16:55:18.539Z,37.1
2017-08-31T17:06:19.109Z,38.5
2017-08-31T17:17:19.493Z,38.7
2017-08-31T17:28:19.243Z,38.7
2017-08-31T17:39:19.593Z,39.5
2017-08-31T17:50:19.637Z,39.5
2017-08-31T18:01:18.313Z,39.5
2017-08-31T18:12:18.526Z,39.6
2017-08-31T18:23:18.756Z,39.3
2017-08-31T18:34:18.927Z,40.2
2017-08-31T18:45:18.710Z,37.8
2017-08-31T18:56:19.006Z,36.9
2017-08-31T19:07:19.349Z,37.1
2017-08-31T19:18:18.724Z,37.3
2017-08-31T19:29:19.428Z,36.4
2017-08-31T19:40:18.871Z,35.8
2017-08-31T19:51:19.294Z,35.6
2017-08-31T20:02:18.743Z,35.3
2017-08-31T20:13:18.391Z,34.9
2017-08-31T20:24:19.285Z,34.6
2017-08-31T20:35:19.591Z,33.8
2017-08-31T20:46:19.565Z,34.1
2017-08-31T20:57:19.564Z,32.9
2017-08-31T21:08:18.787Z,33.2
2017-08-31T21:19:18.513Z,33.1
2017-08-31T21:30:19.360Z,32.7
2017-08-31T21:41:18.708Z,32.3
2017-08-31T21:52:18.669Z,33.4
2017-08-31T22:03:19.115Z,31.9
2017-08-31T22:14:20.685Z,31.4
2017-08-31T22:25:19.017Z,31.3
2017-08-31T22:36:18.598Z,32
2017-08-31T22:47:18.604Z,32.6
2017-08-31T22:58:19.217Z,35.5
2017-08-31T23:09:19.318Z,36.5
2017-08-31T23:20:19.697Z,36.3
2017-08-31T23:31:18.859Z,36.7
2017-08-31T23:42:19.527Z,37.8
2017-08-31T23:53:18.436Z,38.5
